sensor_id;sensor_type;location;lat;lon;timestamp;pressure;altitude;pressure_sealevel;temperature;humidity
36354;BME280;22383;51.114;13.666;2023-01-25T00:01:36;67109.56;;;-0.77;100.00
36354;BME280;22383;51.114;13.666;2023-01-25T00:04:03;67117.41;;;-0.69;100.00
36354;BME280;22383;51.114;13.666;2023-01-25T00:06:31;67113.34;;;-0.68;100.00
36354;BME280;22383;51.114;13.666;2023-01-25T00:08:59;67125.97;;;-0.66;100.00
36354;BME280;22383;51.114;13.666;2023-01-25T00:11:26;67112.56;;;-0.71;100.00
36354;BME280;22383;51.114;13.666;2023-01-25T00:13:55;67105.97;;;-0.82;100.00
36354;BME280;22383;51.114;13.666;2023-01-25T00:16:23;67109.34;;;-0.79;100.00
36354;BME280;22383;51.114;13.666;2023-01-25T00:18:50;67104.13;;;-0.79;100.00
36354;BME280;22383;51.114;13.666;2023-01-25T00:21:20;67105.06;;;-0.81;100.00
36354;BME280;22383;51.114;13.666;2023-01-25T00:23:48;67107.09;;;-0.81;100.00
36354;BME280;22383;51.114;13.666;2023-01-25T00:26:16;67102.25;;;-0.83;100.00
36354;BME280;22383;51.114;13.666;2023-01-25T00:28:54;67115.38;;;-0.69;100.00
36354;BME280;22383;51.114;13.666;2023-01-25T00:31:40;67114.03;;;-0.72;100.00
36354;BME280;22383;51.114;13.666;2023-01-25T00:39:31;67119.53;;;-0.63;100.00
36354;BME280;22383;51.114;13.666;2023-01-25T00:41:59;67114.03;;;-0.72;100.00
36354;BME280;22383;51.114;13.666;2023-01-25T00:44:26;67108.66;;;-0.75;100.00
36354;BME280;22383;51.114;13.666;2023-01-25T00:46:53;67106.72;;;-0.79;100.00
36354;BME280;22383;51.114;13.666;2023-01-25T00:49:24;67112.16;;;-0.77;100.00
36354;BME280;22383;51.114;13.666;2023-01-25T00:51:58;67100.91;;;-0.87;100.00
36354;BME280;22383;51.114;13.666;2023-01-25T00:54:25;67093.69;;;-0.86;100.00
36354;BME280;22383;51.114;13.666;2023-01-25T00:56:53;67094.03;;;-0.88;100.00
36354;BME280;22383;51.114;13.666;2023-01-25T00:59:23;67096.28;;;-0.86;100.00
36354;BME280;22383;51.114;13.666;2023-01-25T01:01:52;67101.34;;;-0.82;100.00
36354;BME280;22383;51.114;13.666;2023-01-25T01:04:20;67106.19;;;-0.80;100.00
36354;BME280;22383;51.114;13.666;2023-01-25T01:06:54;67101.91;;;-0.81;100.00
36354;BME280;22383;51.114;13.666;2023-01-25T01:09:22;67108.41;;;-0.78;100.00
36354;BME280;22383;51.114;13.666;2023-01-25T01:11:54;67097.59;;;-0.83;100.00
36354;BME280;22383;51.114;13.666;2023-01-25T01:14:22;67090.88;;;-0.89;100.00
36354;BME280;22383;51.114;13.666;2023-01-25T01:16:50;67086.94;;;-0.92;100.00
36354;BME280;22383;51.114;13.666;2023-01-25T01:19:18;67089.91;;;-0.94;100.00
36354;BME280;22383;51.114;13.666;2023-01-25T01:21:45;67103.94;;;-0.82;100.00
36354;BME280;22383;51.114;13.666;2023-01-25T01:24:13;67114.59;;;-0.72;100.00
36354;BME280;22383;51.114;13.666;2023-01-25T01:26:40;67114.19;;;-0.77;100.00
36354;BME280;22383;51.114;13.666;2023-01-25T01:29:08;67105.06;;;-0.81;100.00
36354;BME280;22383;51.114;13.666;2023-01-25T01:31:35;67116.84;;;-0.70;100.00
36354;BME280;22383;51.114;13.666;2023-01-25T01:34:14;67110.47;;;-0.78;100.00
36354;BME280;22383;51.114;13.666;2023-01-25T01:36:42;67093.84;;;-0.91;100.00
36354;BME280;22383;51.114;13.666;2023-01-25T01:39:09;67089.31;;;-0.95;100.00
36354;BME280;22383;51.114;13.666;2023-01-25T01:41:36;67091.56;;;-0.93;100.00
36354;BME280;22383;51.114;13.666;2023-01-25T01:44:05;67105.06;;;-0.81;100.00
36354;BME280;22383;51.114;13.666;2023-01-25T01:46:34;67094.03;;;-0.88;100.00
36354;BME280;22383;51.114;13.666;2023-01-25T01:51:42;67109.00;;;-0.77;100.00
36354;BME280;22383;51.114;13.666;2023-01-25T01:54:28;67109.00;;;-0.77;100.00
36354;BME280;22383;51.114;13.666;2023-01-25T01:59:50;67114.03;;;-0.72;100.00
36354;BME280;22383;51.114;13.666;2023-01-25T02:02:22;67107.72;;;-0.73;100.00
36354;BME280;22383;51.114;13.666;2023-01-25T02:04:54;67106.72;;;-0.79;100.00
36354;BME280;22383;51.114;13.666;2023-01-25T02:07:29;67120.22;;;-0.67;100.00
36354;BME280;22383;51.114;13.666;2023-01-25T02:10:03;67115.00;;;-0.67;100.00
36354;BME280;22383;51.114;13.666;2023-01-25T02:12:32;67107.50;;;-0.76;100.00
36354;BME280;22383;51.114;13.666;2023-01-25T02:15:00;67103.38;;;-0.82;100.00
36354;BME280;22383;51.114;13.666;2023-01-25T02:17:31;67106.19;;;-0.80;100.00
36354;BME280;22383;51.114;13.666;2023-01-25T02:20:09;67098.88;;;-0.86;100.00
36354;BME280;22383;51.114;13.666;2023-01-25T02:23:04;67103.94;;;-0.82;100.00
36354;BME280;22383;51.114;13.666;2023-01-25T02:25:34;67103.94;;;-0.82;100.00
36354;BME280;22383;51.114;13.666;2023-01-25T02:30:33;67112.94;;;-0.73;100.00
36354;BME280;22383;51.114;13.666;2023-01-25T02:33:02;67111.44;;;-0.72;100.00
36354;BME280;22383;51.114;13.666;2023-01-25T02:35:43;67126.41;;;-0.61;100.00
36354;BME280;22383;51.114;13.666;2023-01-25T02:38:13;67111.25;;;-0.75;100.00
36354;BME280;22383;51.114;13.666;2023-01-25T02:40:45;67112.34;;;-0.74;100.00
36354;BME280;22383;51.114;13.666;2023-01-25T02:43:14;67106.94;;;-0.77;100.00
36354;BME280;22383;51.114;13.666;2023-01-25T02:45:46;67103.38;;;-0.82;100.00
36354;BME280;22383;51.114;13.666;2023-01-25T02:48:15;67102.25;;;-0.83;100.00
36354;BME280;22383;51.114;13.666;2023-01-25T02:50:44;67109.19;;;-0.74;100.00
36354;BME280;22383;51.114;13.666;2023-01-25T02:53:11;67104.28;;;-0.84;100.00
36354;BME280;22383;51.114;13.666;2023-01-25T02:55:38;67096.84;;;-0.86;100.00
36354;BME280;22383;51.114;13.666;2023-01-25T02:58:07;67083.94;;;-0.98;100.00
36354;BME280;22383;51.114;13.666;2023-01-25T03:00:35;67082.59;;;-1.01;100.00
36354;BME280;22383;51.114;13.666;2023-01-25T03:03:04;67076.84;;;-1.02;100.00
36354;BME280;22383;51.114;13.666;2023-01-25T03:05:32;67083.72;;;-1.00;100.00
36354;BME280;22383;51.114;13.666;2023-01-25T03:08:00;67081.47;;;-1.02;100.00
36354;BME280;22383;51.114;13.666;2023-01-25T03:10:27;67094.53;;;-0.95;100.00
36354;BME280;22383;51.114;13.666;2023-01-25T03:12:54;67087.66;;;-0.97;100.00
36354;BME280;22383;51.114;13.666;2023-01-25T03:15:21;67091.94;;;-0.95;100.00
36354;BME280;22383;51.114;13.666;2023-01-25T03:17:51;67087.66;;;-0.97;100.00
36354;BME280;22383;51.114;13.666;2023-01-25T03:20:22;67087.66;;;-0.97;100.00
36354;BME280;22383;51.114;13.666;2023-01-25T03:22:49;67083.94;;;-0.98;100.00
36354;BME280;22383;51.114;13.666;2023-01-25T03:25:26;67090.25;;;-0.97;100.00
36354;BME280;22383;51.114;13.666;2023-01-25T03:28:00;67102.25;;;-0.83;100.00
36354;BME280;22383;51.114;13.666;2023-01-25T03:30:27;67098.31;;;-0.87;100.00
36354;BME280;22383;51.114;13.666;2023-01-25T03:32:57;67085.97;;;-0.98;100.00
36354;BME280;22383;51.114;13.666;2023-01-25T03:35:24;67089.91;;;-0.94;100.00
36354;BME280;22383;51.114;13.666;2023-01-25T03:37:51;67086.72;;;-0.95;100.00
36354;BME280;22383;51.114;13.666;2023-01-25T03:40:19;67090.47;;;-0.94;100.00
36354;BME280;22383;51.114;13.666;2023-01-25T03:42:49;67095.72;;;-0.87;100.00
36354;BME280;22383;51.114;13.666;2023-01-25T03:45:18;67091.00;;;-0.93;100.00
36354;BME280;22383;51.114;13.666;2023-01-25T03:47:46;67087.09;;;-0.97;100.00
36354;BME280;22383;51.114;13.666;2023-01-25T03:50:14;67084.84;;;-0.99;100.00
36354;BME280;22383;51.114;13.666;2023-01-25T03:52:42;67094.16;;;-0.93;100.00
36354;BME280;22383;51.114;13.666;2023-01-25T03:55:13;67098.88;;;-0.86;100.00
36354;BME280;22383;51.114;13.666;2023-01-25T03:57:44;67102.81;;;-0.83;100.00
36354;BME280;22383;51.114;13.666;2023-01-25T04:00:18;67103.94;;;-0.82;100.00
36354;BME280;22383;51.114;13.666;2023-01-25T04:02:54;67105.63;;;-0.80;100.00
36354;BME280;22383;51.114;13.666;2023-01-25T04:05:21;67104.50;;;-0.81;100.00
36354;BME280;22383;51.114;13.666;2023-01-25T04:07:49;67097.97;;;-0.85;100.00
36354;BME280;22383;51.114;13.666;2023-01-25T04:10:22;67100.00;;;-0.85;100.00
36354;BME280;22383;51.114;13.666;2023-01-25T04:12:49;67109.56;;;-0.77;100.00
36354;BME280;22383;51.114;13.666;2023-01-25T04:15:17;67117.78;;;-0.71;100.00
36354;BME280;22383;51.114;13.666;2023-01-25T04:17:47;67109.75;;;-0.74;100.00
36354;BME280;22383;51.114;13.666;2023-01-25T04:20:21;67109.56;;;-0.77;100.00
36354;BME280;22383;51.114;13.666;2023-01-25T04:22:49;67114.81;;;-0.69;100.00
36354;BME280;22383;51.114;13.666;2023-01-25T04:25:18;67115.72;;;-0.71;100.00
36354;BME280;22383;51.114;13.666;2023-01-25T04:27:49;67105.28;;;-0.78;100.00
36354;BME280;22383;51.114;13.666;2023-01-25T04:30:17;67107.09;;;-0.81;100.00
36354;BME280;22383;51.114;13.666;2023-01-25T04:32:48;67101.47;;;-0.86;100.00
36354;BME280;22383;51.114;13.666;2023-01-25T04:35:49;67101.34;;;-0.82;100.00
36354;BME280;22383;51.114;13.666;2023-01-25T04:38:17;67105.63;;;-0.80;100.00
36354;BME280;22383;51.114;13.666;2023-01-25T04:40:46;67101.47;;;-0.86;100.00
36354;BME280;22383;51.114;13.666;2023-01-25T04:43:14;67095.72;;;-0.87;100.00
36354;BME280;22383;51.114;13.666;2023-01-25T04:45:43;67094.59;;;-0.88;100.00
36354;BME280;22383;51.114;13.666;2023-01-25T04:48:19;67101.69;;;-0.84;100.00
36354;BME280;22383;51.114;13.666;2023-01-25T04:50:52;67105.06;;;-0.81;100.00
36354;BME280;22383;51.114;13.666;2023-01-25T04:53:21;67111.59;;;-0.77;100.00
36354;BME280;22383;51.114;13.666;2023-01-25T04:55:49;67112.34;;;-0.74;100.00
36354;BME280;22383;51.114;13.666;2023-01-25T04:58:17;67111.03;;;-0.78;100.00
36354;BME280;22383;51.114;13.666;2023-01-25T05:00:44;67098.53;;;-0.84;100.00
36354;BME280;22383;51.114;13.666;2023-01-25T05:03:11;67105.41;;;-0.83;100.00
36354;BME280;22383;51.114;13.666;2023-01-25T05:05:45;67097.06;;;-0.83;100.00
36354;BME280;22383;51.114;13.666;2023-01-25T05:08:16;67102.81;;;-0.83;100.00
36354;BME280;22383;51.114;13.666;2023-01-25T05:10:43;67099.66;;;-0.83;100.00
36354;BME280;22383;51.114;13.666;2023-01-25T05:13:31;67098.13;;;-0.89;100.00
36354;BME280;22383;51.114;13.666;2023-01-25T05:16:21;67101.13;;;-0.84;100.00
36354;BME280;22383;51.114;13.666;2023-01-25T05:18:48;67097.97;;;-0.85;100.00
36354;BME280;22383;51.114;13.666;2023-01-25T05:21:21;67101.13;;;-0.84;100.00
36354;BME280;22383;51.114;13.666;2023-01-25T05:24:11;67102.03;;;-0.86;100.00
36354;BME280;22383;51.114;13.666;2023-01-25T05:26:39;67097.19;;;-0.88;100.00
36354;BME280;22383;51.114;13.666;2023-01-25T05:29:54;67091.56;;;-0.93;100.00
36354;BME280;22383;51.114;13.666;2023-01-25T05:32:38;67090.81;;;-0.96;100.00
36354;BME280;22383;51.114;13.666;2023-01-25T05:35:05;67082.81;;;-0.99;100.00
36354;BME280;22383;51.114;13.666;2023-01-25T05:37:33;67085.97;;;-0.98;100.00
36354;BME280;22383;51.114;13.666;2023-01-25T05:40:08;67090.47;;;-0.94;100.00
36354;BME280;22383;51.114;13.666;2023-01-25T05:42:54;67082.97;;;-1.03;100.00
36354;BME280;22383;51.114;13.666;2023-01-25T05:45:23;67064.06;;;-1.18;100.00
36354;BME280;22383;51.114;13.666;2023-01-25T05:47:56;67065.75;;;-1.17;100.00
36354;BME280;22383;51.114;13.666;2023-01-25T05:50:32;67075.31;;;-1.08;100.00
36354;BME280;22383;51.114;13.666;2023-01-25T05:53:04;67081.81;;;-1.04;100.00
36354;BME280;22383;51.114;13.666;2023-01-25T05:55:34;67067.66;;;-1.12;100.00
36354;BME280;22383;51.114;13.666;2023-01-25T05:58:05;67077.53;;;-1.06;100.00
36354;BME280;22383;51.114;13.666;2023-01-25T06:00:32;67067.78;;;-1.17;100.00
36354;BME280;22383;51.114;13.666;2023-01-25T06:03:01;67078.69;;;-1.05;100.00
36354;BME280;22383;51.114;13.666;2023-01-25T06:05:30;67076.75;;;-1.09;100.00
36354;BME280;22383;51.114;13.666;2023-01-25T06:07:57;67076.44;;;-1.07;100.00
36354;BME280;22383;51.114;13.666;2023-01-25T06:10:31;67084.28;;;-1.00;100.00
36354;BME280;22383;51.114;13.666;2023-01-25T06:12:58;67082.97;;;-1.03;100.00
36354;BME280;22383;51.114;13.666;2023-01-25T06:15:26;67071.94;;;-1.11;100.00
36354;BME280;22383;51.114;13.666;2023-01-25T06:17:57;67082.38;;;-1.04;100.00
36354;BME280;22383;51.114;13.666;2023-01-25T06:20:51;67075.31;;;-1.08;100.00
36354;BME280;22383;51.114;13.666;2023-01-25T06:23:24;67099.44;;;-0.86;100.00
36354;BME280;22383;51.114;13.666;2023-01-25T06:25:52;67085.19;;;-1.01;100.00
36354;BME280;22383;51.114;13.666;2023-01-25T06:28:22;67072.72;;;-1.08;100.00
36354;BME280;22383;51.114;13.666;2023-01-25T06:30:49;67079.34;;;-1.09;100.00
36354;BME280;22383;51.114;13.666;2023-01-25T06:33:16;67080.34;;;-1.03;100.00
36354;BME280;22383;51.114;13.666;2023-01-25T06:35:43;67084.28;;;-1.00;100.00
36354;BME280;22383;51.114;13.666;2023-01-25T06:38:10;67085.41;;;-0.99;100.00
36354;BME280;22383;51.114;13.666;2023-01-25T06:40:37;67084.13;;;-0.95;100.00
36354;BME280;22383;51.114;13.666;2023-01-25T06:43:08;67099.78;;;-0.88;100.00
36354;BME280;22383;51.114;13.666;2023-01-25T06:45:36;67074.16;;;-1.09;100.00
36354;BME280;22383;51.114;13.666;2023-01-25T06:48:03;67068.22;;;-1.12;100.00
36354;BME280;22383;51.114;13.666;2023-01-25T06:50:30;67074.53;;;-1.11;100.00
36354;BME280;22383;51.114;13.666;2023-01-25T06:52:58;67076.44;;;-1.07;100.00
36354;BME280;22383;51.114;13.666;2023-01-25T06:55:25;67084.41;;;-1.04;100.00
36354;BME280;22383;51.114;13.666;2023-01-25T06:57:52;67079.78;;;-1.04;100.00
36354;BME280;22383;51.114;13.666;2023-01-25T07:00:19;67082.97;;;-1.03;100.00
36354;BME280;22383;51.114;13.666;2023-01-25T07:02:47;67084.28;;;-1.00;100.00
36354;BME280;22383;51.114;13.666;2023-01-25T07:05:14;67083.16;;;-1.01;100.00
36354;BME280;22383;51.114;13.666;2023-01-25T07:07:44;67086.72;;;-0.95;100.00
36354;BME280;22383;51.114;13.666;2023-01-25T07:10:12;67094.59;;;-0.88;100.00
36354;BME280;22383;51.114;13.666;2023-01-25T07:12:39;67087.88;;;-0.94;100.00
36354;BME280;22383;51.114;13.666;2023-01-25T07:15:07;67088.78;;;-0.96;100.00
36354;BME280;22383;51.114;13.666;2023-01-25T07:17:34;67093.25;;;-0.91;100.00
36354;BME280;22383;51.114;13.666;2023-01-25T07:20:02;67101.81;;;-0.88;100.00
36354;BME280;22383;51.114;13.666;2023-01-25T07:22:29;67089.56;;;-0.92;100.00
36354;BME280;22383;51.114;13.666;2023-01-25T07:24:56;67080.34;;;-1.03;100.00
36354;BME280;22383;51.114;13.666;2023-01-25T07:27:24;67077.75;;;-1.03;100.00
36354;BME280;22383;51.114;13.666;2023-01-25T07:29:52;67082.03;;;-1.02;100.00
36354;BME280;22383;51.114;13.666;2023-01-25T07:32:19;67085.97;;;-0.98;100.00
36354;BME280;22383;51.114;13.666;2023-01-25T07:34:46;67079.22;;;-1.04;100.00
36354;BME280;22383;51.114;13.666;2023-01-25T07:37:14;67089.47;;;-1.00;100.00
36354;BME280;22383;51.114;13.666;2023-01-25T07:39:41;67074.75;;;-1.08;100.00
36354;BME280;22383;51.114;13.666;2023-01-25T07:42:14;67067.66;;;-1.12;100.00
36354;BME280;22383;51.114;13.666;2023-01-25T07:44:50;67074.53;;;-1.11;100.00
36354;BME280;22383;51.114;13.666;2023-01-25T07:47:17;67077.53;;;-1.06;100.00
36354;BME280;22383;51.114;13.666;2023-01-25T07:49:45;67083.94;;;-0.98;100.00
36354;BME280;22383;51.114;13.666;2023-01-25T07:52:12;67089.31;;;-0.95;100.00
36354;BME280;22383;51.114;13.666;2023-01-25T07:54:40;67082.03;;;-1.02;100.00
36354;BME280;22383;51.114;13.666;2023-01-25T07:57:07;67087.66;;;-0.97;100.00
36354;BME280;22383;51.114;13.666;2023-01-25T07:59:34;67087.31;;;-0.94;100.00
36354;BME280;22383;51.114;13.666;2023-01-25T08:02:02;67091.56;;;-0.93;100.00
36354;BME280;22383;51.114;13.666;2023-01-25T08:04:29;67094.94;;;-0.90;100.00
36354;BME280;22383;51.114;13.666;2023-01-25T08:06:57;67092.56;;;-0.87;100.00
36354;BME280;22383;51.114;13.666;2023-01-25T08:09:24;67095.72;;;-0.87;100.00
36354;BME280;22383;51.114;13.666;2023-01-25T08:11:51;67124.00;;;-0.59;100.00
36354;BME280;22383;51.114;13.666;2023-01-25T08:14:19;67119.66;;;-0.67;100.00
36354;BME280;22383;51.114;13.666;2023-01-25T08:16:50;67095.16;;;-0.68;100.00
36354;BME280;22383;51.114;13.666;2023-01-25T08:19:36;67119.66;;;-0.67;100.00
36354;BME280;22383;51.114;13.666;2023-01-25T08:22:06;67121.13;;;-0.68;100.00
36354;BME280;22383;51.114;13.666;2023-01-25T08:24:33;67118.53;;;-0.68;100.00
36354;BME280;22383;51.114;13.666;2023-01-25T08:27:00;67117.41;;;-0.69;100.00
36354;BME280;22383;51.114;13.666;2023-01-25T08:29:28;67121.34;;;-0.66;100.00
36354;BME280;22383;51.114;13.666;2023-01-25T08:31:55;67105.28;;;-0.78;100.00
36354;BME280;22383;51.114;13.666;2023-01-25T08:34:23;67100.91;;;-0.87;100.00
36354;BME280;22383;51.114;13.666;2023-01-25T08:36:50;67109.56;;;-0.77;100.00
36354;BME280;22383;51.114;13.666;2023-01-25T08:39:17;67108.41;;;-0.78;100.00
36354;BME280;22383;51.114;13.666;2023-01-25T08:41:45;67106.94;;;-0.77;100.00
36354;BME280;22383;51.114;13.666;2023-01-25T08:44:12;67122.13;;;-0.63;100.00
36354;BME280;22383;51.114;13.666;2023-01-25T08:46:39;67139.31;;;-0.49;100.00
36354;BME280;22383;51.114;13.666;2023-01-25T08:49:08;67144.72;;;-0.47;100.00
36354;BME280;22383;51.114;13.666;2023-01-25T08:51:36;67099.41;;;-0.48;100.00
36354;BME280;22383;51.114;13.666;2023-01-25T08:54:06;67131.88;;;-0.51;100.00
36354;BME280;22383;51.114;13.666;2023-01-25T08:56:36;67142.91;;;-0.44;100.00
36354;BME280;22383;51.114;13.666;2023-01-25T08:59:04;67142.91;;;-0.44;100.00
36354;BME280;22383;51.114;13.666;2023-01-25T09:01:32;67147.53;;;-0.44;100.00
36354;BME280;22383;51.114;13.666;2023-01-25T09:04:00;67152.03;;;-0.40;100.00
36354;BME280;22383;51.114;13.666;2023-01-25T09:06:27;67143.25;;;-0.46;100.00
36354;BME280;22383;51.114;13.666;2023-01-25T09:08:55;67133.91;;;-0.52;100.00
36354;BME280;22383;51.114;13.666;2023-01-25T09:11:24;67140.44;;;-0.48;100.00
36354;BME280;22383;51.114;13.666;2023-01-25T09:13:51;67142.13;;;-0.47;100.00
36354;BME280;22383;51.114;13.666;2023-01-25T09:16:22;67155.19;;;-0.40;100.00
36354;BME280;22383;51.114;13.666;2023-01-25T09:18:56;67139.66;;;-0.51;100.00
36354;BME280;22383;51.114;13.666;2023-01-25T09:21:25;67140.63;;;-0.46;100.00
36354;BME280;22383;51.114;13.666;2023-01-25T09:23:53;67143.81;;;-0.45;100.00
36354;BME280;22383;51.114;13.666;2023-01-25T09:26:39;67146.47;;;-0.38;100.00
36354;BME280;22383;51.114;13.666;2023-01-25T09:29:08;67143.25;;;-0.46;100.00
36354;BME280;22383;51.114;13.666;2023-01-25T09:31:37;67153.91;;;-0.36;100.00
36354;BME280;22383;51.114;13.666;2023-01-25T09:34:21;67151.69;;;-0.38;100.00
36354;BME280;22383;51.114;13.666;2023-01-25T09:36:49;67150.97;;;-0.34;100.00
36354;BME280;22383;51.114;13.666;2023-01-25T09:39:16;67152.03;;;-0.40;100.00
36354;BME280;22383;51.114;13.666;2023-01-25T09:42:24;67144.72;;;-0.47;100.00
36354;BME280;22383;51.114;13.666;2023-01-25T09:45:16;67153.38;;;-0.36;100.00
36354;BME280;22383;51.114;13.666;2023-01-25T09:47:55;67151.13;;;-0.39;100.00
36354;BME280;22383;51.114;13.666;2023-01-25T09:55:50;67136.72;;;-0.49;100.00
36354;BME280;22383;51.114;13.666;2023-01-25T09:58:26;67124.13;;;-0.63;100.00
36354;BME280;22383;51.114;13.666;2023-01-25T10:04:15;67129.75;;;-0.58;100.00
36354;BME280;22383;51.114;13.666;2023-01-25T10:06:48;67138.19;;;-0.50;100.00
36354;BME280;22383;51.114;13.666;2023-01-25T10:09:38;67137.84;;;-0.48;100.00
36354;BME280;22383;51.114;13.666;2023-01-25T10:12:19;67155.75;;;-0.39;100.00
36354;BME280;22383;51.114;13.666;2023-01-25T10:14:47;67156.16;;;-0.34;100.00
36354;BME280;22383;51.114;13.666;2023-01-25T10:22:22;67130.69;;;-0.60;100.00
36354;BME280;22383;51.114;13.666;2023-01-25T10:27:49;67130.88;;;-0.57;100.00
36354;BME280;22383;51.114;13.666;2023-01-25T10:33:14;67166.28;;;-0.25;100.00
36354;BME280;22383;51.114;13.666;2023-01-25T10:35:45;67165.50;;;-0.28;100.00
36354;BME280;22383;51.114;13.666;2023-01-25T10:38:19;67163.66;;;-0.25;100.00
36354;BME280;22383;51.114;13.666;2023-01-25T10:40:59;67157.50;;;-0.30;100.00
36354;BME280;22383;51.114;13.666;2023-01-25T10:43:28;67170.56;;;-0.23;100.00
36354;BME280;22383;51.114;13.666;2023-01-25T10:45:56;67159.31;;;-0.33;100.00
36354;BME280;22383;51.114;13.666;2023-01-25T10:48:29;67164.59;;;-0.26;100.00
36354;BME280;22383;51.114;13.666;2023-01-25T10:51:00;67169.09;;;-0.22;100.00
36354;BME280;22383;51.114;13.666;2023-01-25T10:53:36;67163.47;;;-0.27;100.00
36354;BME280;22383;51.114;13.666;2023-01-25T10:56:23;67161.78;;;-0.29;100.00
36354;BME280;22383;51.114;13.666;2023-01-25T10:59:05;67175.25;;;-0.16;100.00
36354;BME280;22383;51.114;13.666;2023-01-25T11:01:35;67148.72;;;-0.36;100.00
36354;BME280;22383;51.114;13.666;2023-01-25T11:04:22;67140.63;;;-0.46;100.00
36354;BME280;22383;51.114;13.666;2023-01-25T11:06:49;67129.19;;;-0.59;100.00
36354;BME280;22383;51.114;13.666;2023-01-25T11:11:56;67139.31;;;-0.49;100.00
36354;BME280;22383;51.114;13.666;2023-01-25T11:14:25;67126.59;;;-0.59;100.00
36354;BME280;22383;51.114;13.666;2023-01-25T11:16:55;67115.16;;;-0.71;100.00
36354;BME280;22383;51.114;13.666;2023-01-25T11:19:26;67108.06;;;-0.76;100.00
36354;BME280;22383;51.114;13.666;2023-01-25T11:21:55;67109.75;;;-0.74;100.00
36354;BME280;22383;51.114;13.666;2023-01-25T11:24:43;67112.34;;;-0.74;100.00
36354;BME280;22383;51.114;13.666;2023-01-25T11:29:45;67112.34;;;-0.74;100.00
36354;BME280;22383;51.114;13.666;2023-01-25T11:32:33;67116.84;;;-0.70;100.00
36354;BME280;22383;51.114;13.666;2023-01-25T11:35:01;67135.38;;;-0.53;100.00
36354;BME280;22383;51.114;13.666;2023-01-25T11:40:26;67136.88;;;-0.54;100.00
36354;BME280;22383;51.114;13.666;2023-01-25T11:43:23;67147.75;;;-0.42;100.00
36354;BME280;22383;51.114;13.666;2023-01-25T11:56:44;67121.91;;;-0.65;100.00
36354;BME280;22383;51.114;13.666;2023-01-25T11:59:49;67103.38;;;-0.82;100.00
36354;BME280;22383;51.114;13.666;2023-01-25T12:13:01;67139.31;;;-0.49;100.00
36354;BME280;22383;51.114;13.666;2023-01-25T12:26:51;67128.22;;;-0.64;100.00
36354;BME280;22383;51.114;13.666;2023-01-25T12:29:38;67118.38;;;-0.64;100.00
36354;BME280;22383;51.114;13.666;2023-01-25T12:32:23;67106.41;;;-0.77;100.00
36354;BME280;22383;51.114;13.666;2023-01-25T12:35:18;67092.50;;;-0.94;100.00
36354;BME280;22383;51.114;13.666;2023-01-25T12:37:51;67094.38;;;-0.90;100.00
36354;BME280;22383;51.114;13.666;2023-01-25T12:40:42;67092.50;;;-0.94;100.00
36354;BME280;22383;51.114;13.666;2023-01-25T12:43:30;67087.44;;;-0.99;100.00
36354;BME280;22383;51.114;13.666;2023-01-25T12:46:07;67103.94;;;-0.82;100.00
36354;BME280;22383;51.114;13.666;2023-01-25T12:48:40;67110.47;;;-0.78;100.00
36354;BME280;22383;51.114;13.666;2023-01-25T12:51:12;67112.34;;;-0.74;100.00
36354;BME280;22383;51.114;13.666;2023-01-25T12:53:47;67105.28;;;-0.78;100.00
36354;BME280;22383;51.114;13.666;2023-01-25T12:59:33;67127.88;;;-0.62;100.00
36354;BME280;22383;51.114;13.666;2023-01-25T13:05:23;67139.88;;;-0.49;100.00
36354;BME280;22383;51.114;13.666;2023-01-25T13:10:32;67132.03;;;-0.56;100.00
36354;BME280;22383;51.114;13.666;2023-01-25T13:13:19;67111.25;;;-0.75;100.00
36354;BME280;22383;51.114;13.666;2023-01-25T13:15:51;67136.50;;;-0.52;100.00
36354;BME280;22383;51.114;13.666;2023-01-25T13:21:05;67118.19;;;-0.66;100.00
36354;BME280;22383;51.114;13.666;2023-01-25T13:23:40;67125.06;;;-0.65;100.00
36354;BME280;22383;51.114;13.666;2023-01-25T13:28:51;67125.28;;;-0.62;100.00
36354;BME280;22383;51.114;13.666;2023-01-25T13:37:28;67144.94;;;-0.44;100.00
36354;BME280;22383;51.114;13.666;2023-01-25T13:45:34;67136.28;;;-0.54;100.00
36354;BME280;22383;51.114;13.666;2023-01-25T13:48:05;67133.13;;;-0.55;100.00
36354;BME280;22383;51.114;13.666;2023-01-25T13:50:45;67146.41;;;-0.45;100.00
36354;BME280;22383;51.114;13.666;2023-01-25T13:55:43;67134.81;;;-0.53;100.00
36354;BME280;22383;51.114;13.666;2023-01-25T13:58:19;67138.19;;;-0.50;100.00
36354;BME280;22383;51.114;13.666;2023-01-25T14:01:01;67125.50;;;-0.60;100.00
36354;BME280;22383;51.114;13.666;2023-01-25T14:03:40;67127.31;;;-0.63;100.00
36354;BME280;22383;51.114;13.666;2023-01-25T14:06:17;67118.75;;;-0.66;100.00
36354;BME280;22383;51.114;13.666;2023-01-25T14:08:46;67110.66;;;-0.76;100.00
36354;BME280;22383;51.114;13.666;2023-01-25T14:11:23;67109.91;;;-0.79;100.00
36354;BME280;22383;51.114;13.666;2023-01-25T14:14:30;67110.47;;;-0.78;100.00
36354;BME280;22383;51.114;13.666;2023-01-25T14:19:28;67114.59;;;-0.72;100.00
36354;BME280;22383;51.114;13.666;2023-01-25T14:27:45;67130.34;;;-0.58;100.00
36354;BME280;22383;51.114;13.666;2023-01-25T14:32:44;67129.19;;;-0.59;100.00
36354;BME280;22383;51.114;13.666;2023-01-25T14:35:35;67128.66;;;-0.59;100.00
36354;BME280;22383;51.114;13.666;2023-01-25T14:38:31;67129.75;;;-0.58;100.00
36354;BME280;22383;51.114;13.666;2023-01-25T14:43:29;67126.06;;;-0.59;100.00
36354;BME280;22383;51.114;13.666;2023-01-25T14:45:57;67129.19;;;-0.59;100.00
36354;BME280;22383;51.114;13.666;2023-01-25T14:48:39;67127.50;;;-0.60;100.00
36354;BME280;22383;51.114;13.666;2023-01-25T14:51:14;67129.75;;;-0.58;100.00
36354;BME280;22383;51.114;13.666;2023-01-25T14:53:47;67123.03;;;-0.64;100.00
36354;BME280;22383;51.114;13.666;2023-01-25T14:58:48;67119.66;;;-0.67;100.00
36354;BME280;22383;51.114;13.666;2023-01-25T15:01:37;67118.53;;;-0.68;100.00
36354;BME280;22383;51.114;13.666;2023-01-25T15:04:10;67110.66;;;-0.76;100.00